Greenwich, Connecticut
Current Conditions -  °F | °C
As of 8:56 AM on Tuesday 27 Jan 2015 (Local Time) from KHPN Reporting Station
Light Snow Light Snow  
Wind Chill: -1°   Ceiling: 500
Heat Index: 18°   Visibility: 0.75mi
Dew Point: 12°   Wind: 26mph
Humidity: 78%   Direction: 330°NNW
Pressure: 29.64"   Gusts: 35mph
Location:  41.03°N, 73.63°W
Report Text: KHPN 271356Z 33023G30KT 3/4SM R16/5000VP6000FT -SN BR OVC005 M08/M11 A2964 RMK AO2 PK WND 33034/1303 SLP048 P0000 T10781111
Loading
Personal Weather Stations






























Interactive Weather Map New forecast layout! Learn more

10-Day Weather Forecast

Advertisements
Track Severe Weather on mobile